createdAt,value
2022-12-19T00:01:44.460Z,3.67
2022-12-19T00:04:52.551Z,4.25
2022-12-19T00:07:58.014Z,3.50
2022-12-19T00:11:05.624Z,3.60
2022-12-19T00:14:12.708Z,3.88
2022-12-19T00:17:17.780Z,3.17
2022-12-19T00:20:25.964Z,3.38
2022-12-19T00:23:32.506Z,2.97
2022-12-19T00:26:40.048Z,3.50
2022-12-19T00:29:45.223Z,3.42
2022-12-19T00:32:50.747Z,3.47
2022-12-19T00:36:03.576Z,3.50
2022-12-19T00:39:10.840Z,4.00
2022-12-19T00:42:16.104Z,3.40
2022-12-19T00:45:21.416Z,4.00
2022-12-19T00:48:26.599Z,4.30
2022-12-19T00:51:35.439Z,3.67
2022-12-19T00:54:40.739Z,3.65
2022-12-19T00:57:46.841Z,3.95
2022-12-19T01:00:52.503Z,3.88
2022-12-19T01:04:27.254Z,4.07
2022-12-19T01:07:26.263Z,4.28
2022-12-19T01:13:38.057Z,4.40
2022-12-19T01:16:47.730Z,4.95
2022-12-19T01:19:53.514Z,5.38
2022-12-19T01:23:01.460Z,5.22
2022-12-19T01:29:11.844Z,4.88
2022-12-19T01:32:17.509Z,5.65
2022-12-19T01:35:22.731Z,4.88
2022-12-19T01:38:30.811Z,5.18
2022-12-19T01:41:36.016Z,6.05
2022-12-19T01:44:41.534Z,5.65
2022-12-19T01:47:48.718Z,5.75
2022-12-19T01:51:02.548Z,5.10
2022-12-19T01:54:12.999Z,5.53
2022-12-19T01:57:19.690Z,5.35
2022-12-19T02:00:25.149Z,5.25
2022-12-19T02:03:31.707Z,4.97
2022-12-19T02:06:37.938Z,5.63
2022-12-19T02:09:47.063Z,5.47
2022-12-19T02:12:52.957Z,6.28
2022-12-19T02:16:02.367Z,5.47
2022-12-19T02:19:16.093Z,4.88
2022-12-19T02:22:25.783Z,5.35
2022-12-19T02:25:50.248Z,5.55
2022-12-19T02:29:22.455Z,5.32
2022-12-19T02:32:36.282Z,5.13
2022-12-19T02:35:45.744Z,5.47
2022-12-19T02:38:56.899Z,5.13
2022-12-19T02:42:02.992Z,5.22
2022-12-19T02:45:11.121Z,5.05
2022-12-19T02:48:19.899Z,4.97
2022-12-19T02:51:25.497Z,4.95
2022-12-19T02:54:30.794Z,4.60
2022-12-19T02:57:43.894Z,4.97
2022-12-19T03:00:55.111Z,5.50
2022-12-19T03:04:09.728Z,5.45
2022-12-19T03:07:19.565Z,4.68
2022-12-19T03:10:28.321Z,4.80
2022-12-19T03:13:35.402Z,4.88
2022-12-19T03:16:41.341Z,5.40
2022-12-19T03:19:49.076Z,4.72
2022-12-19T03:22:54.883Z,4.90
2022-12-19T03:26:02.883Z,4.38
2022-12-19T03:29:11.624Z,4.97
2022-12-19T03:32:17.383Z,4.57
2022-12-19T03:35:26.079Z,5.32
2022-12-19T03:38:31.755Z,4.82
2022-12-19T03:41:50.809Z,4.68
2022-12-19T03:44:56.786Z,4.47
2022-12-19T03:48:04.460Z,4.47
2022-12-19T03:51:17.656Z,4.40
2022-12-19T03:54:25.825Z,4.43
2022-12-19T03:57:32.933Z,4.55
2022-12-19T04:00:40.110Z,5.05
2022-12-19T04:03:45.454Z,4.60
2022-12-19T04:06:54.095Z,3.95
2022-12-19T04:10:01.822Z,5.05
2022-12-19T04:13:12.391Z,6.00
2022-12-19T04:16:21.756Z,5.32
2022-12-19T04:19:31.691Z,5.15
2022-12-19T04:22:42.660Z,4.63
2022-12-19T04:25:49.792Z,5.38
2022-12-19T04:28:57.796Z,4.57
2022-12-19T04:32:03.329Z,5.57
2022-12-19T04:35:08.910Z,6.57
2022-12-19T04:38:16.795Z,5.30
2022-12-19T04:44:27.261Z,4.55
2022-12-19T04:47:32.934Z,5.70
2022-12-19T04:50:38.577Z,5.20
2022-12-19T04:53:46.860Z,6.28
2022-12-19T04:56:52.438Z,6.10
2022-12-19T04:59:57.549Z,5.25
2022-12-19T05:03:03.297Z,5.78
2022-12-19T05:06:10.478Z,4.60
2022-12-19T05:09:18.618Z,5.73
2022-12-19T05:12:24.026Z,5.13
2022-12-19T05:15:29.213Z,5.80
2022-12-19T05:18:34.941Z,5.35
2022-12-19T05:21:40.452Z,4.97
2022-12-19T05:24:48.353Z,6.68
2022-12-19T05:27:53.557Z,5.63
2022-12-19T05:31:05.684Z,5.70
2022-12-19T05:34:10.865Z,5.32
2022-12-19T05:37:16.476Z,5.70
2022-12-19T05:40:24.598Z,5.03
2022-12-19T05:43:30.774Z,5.78
2022-12-19T05:46:36.182Z,5.35
2022-12-19T05:49:41.810Z,5.57
2022-12-19T05:52:47.269Z,5.55
2022-12-19T05:55:55.183Z,5.47
2022-12-19T05:59:00.726Z,5.30
2022-12-19T06:02:06.007Z,4.80
2022-12-19T06:05:11.987Z,5.63
2022-12-19T06:08:16.929Z,4.85
2022-12-19T06:11:25.220Z,4.95
2022-12-19T06:17:35.673Z,5.32
2022-12-19T06:20:41.224Z,5.22
2022-12-19T06:23:46.956Z,4.68
2022-12-19T06:26:54.782Z,5.53
2022-12-19T06:30:00.157Z,5.25
2022-12-19T06:33:05.484Z,5.53
2022-12-19T06:36:14.008Z,4.95
2022-12-19T06:39:19.684Z,4.95
2022-12-19T06:42:24.878Z,5.10
2022-12-19T06:45:30.410Z,5.38
2022-12-19T06:48:35.666Z,4.95
2022-12-19T06:51:41.252Z,5.25
2022-12-19T06:54:46.486Z,5.28
2022-12-19T06:57:54.625Z,6.18
2022-12-19T07:01:00.082Z,4.93
2022-12-19T07:04:05.950Z,5.72
2022-12-19T07:07:11.630Z,5.35
2022-12-19T07:10:17.191Z,5.10
2022-12-19T07:13:25.581Z,6.05
2022-12-19T07:16:31.120Z,5.10
2022-12-19T07:19:38.319Z,5.13
2022-12-19T07:22:44.609Z,4.95
2022-12-19T07:25:50.128Z,5.25
2022-12-19T07:28:58.535Z,5.20
2022-12-19T07:35:09.231Z,4.90
2022-12-19T07:38:14.452Z,4.70
2022-12-19T07:41:20.095Z,5.15
2022-12-19T07:44:27.742Z,5.65
2022-12-19T07:47:34.192Z,7.00
2022-12-19T07:50:39.680Z,6.32
2022-12-19T07:53:45.261Z,5.53
2022-12-19T07:56:50.597Z,5.72
2022-12-19T07:59:58.959Z,5.13
2022-12-19T08:06:10.223Z,5.75
2022-12-19T08:09:15.868Z,5.90
2022-12-19T08:12:21.071Z,6.35
2022-12-19T08:15:29.083Z,5.30
2022-12-19T08:18:34.640Z,6.30
2022-12-19T08:21:40.163Z,5.88
2022-12-19T08:24:45.915Z,6.65
2022-12-19T08:27:51.456Z,6.18
2022-12-19T08:30:59.722Z,6.90
2022-12-19T08:34:05.068Z,7.03
2022-12-19T08:37:11.312Z,5.68
2022-12-19T08:40:16.776Z,5.55
2022-12-19T08:43:22.607Z,6.25
2022-12-19T08:46:30.738Z,5.88
2022-12-19T08:49:36.665Z,5.63
2022-12-19T08:52:41.890Z,5.30
2022-12-19T08:55:47.024Z,6.65
2022-12-19T08:58:54.111Z,5.60
2022-12-19T09:02:02.532Z,6.22
2022-12-19T09:06:00.905Z,6.00
2022-12-19T09:08:36.069Z,5.90
2022-12-19T09:11:47.339Z,6.20
2022-12-19T09:14:53.592Z,6.18
2022-12-19T09:18:01.628Z,6.43
2022-12-19T09:21:07.915Z,5.93
2022-12-19T09:24:13.533Z,6.32
2022-12-19T09:27:18.947Z,6.43
2022-12-19T09:30:24.167Z,5.80
2022-12-19T09:33:36.623Z,5.70
2022-12-19T09:36:45.276Z,6.32
2022-12-19T09:39:50.973Z,5.70
2022-12-19T09:43:08.575Z,7.05
2022-12-19T09:46:18.934Z,6.35
2022-12-19T09:49:28.007Z,5.88
2022-12-19T09:52:36.378Z,6.15
2022-12-19T09:58:50.005Z,6.25
2022-12-19T10:01:58.879Z,7.10
2022-12-19T10:05:41.219Z,6.40
2022-12-19T10:09:00.251Z,6.85
2022-12-19T10:12:44.785Z,5.97
2022-12-19T10:15:44.692Z,6.53
2022-12-19T10:18:57.077Z,6.80
2022-12-19T10:22:18.235Z,7.22
2022-12-19T10:25:40.124Z,6.35
2022-12-19T10:28:53.314Z,6.70
2022-12-19T10:32:02.004Z,7.88
2022-12-19T10:35:15.008Z,6.80
2022-12-19T10:38:27.588Z,7.15
2022-12-19T10:41:40.734Z,6.80
2022-12-19T10:44:50.686Z,6.30
2022-12-19T10:47:59.169Z,6.80
2022-12-19T10:51:06.809Z,6.80
2022-12-19T10:54:14.902Z,6.80
2022-12-19T10:57:26.478Z,8.00
2022-12-19T11:00:33.028Z,7.80
2022-12-19T11:03:39.062Z,7.10
2022-12-19T11:06:49.552Z,6.60
2022-12-19T11:10:30.522Z,7.35
2022-12-19T11:17:03.901Z,6.47
2022-12-19T11:24:40.559Z,6.40
2022-12-19T11:29:18.620Z,6.75
2022-12-19T11:30:36.284Z,7.47
2022-12-19T11:30:36.951Z,6.47
2022-12-19T11:31:50.985Z,7.30
2022-12-19T11:34:26.239Z,7.63
2022-12-19T11:37:36.721Z,7.78
2022-12-19T11:40:48.647Z,7.45
2022-12-19T11:44:00.344Z,7.78
2022-12-19T11:47:09.244Z,6.60
2022-12-19T11:50:18.648Z,7.40
2022-12-19T11:53:27.885Z,7.97
2022-12-19T11:56:33.057Z,7.90
2022-12-19T11:59:41.962Z,8.95
2022-12-19T12:02:57.077Z,8.25
2022-12-19T12:06:03.911Z,7.75
2022-12-19T12:13:13.585Z,7.97
2022-12-19T12:20:40.100Z,7.60
2022-12-19T12:29:37.981Z,8.27
2022-12-19T12:31:20.197Z,7.97
2022-12-19T12:31:45.377Z,7.43
2022-12-19T12:32:02.268Z,8.10
2022-12-19T12:35:15.183Z,8.18
2022-12-19T12:35:41.443Z,8.63
2022-12-19T12:38:14.289Z,8.30
2022-12-19T12:41:01.555Z,7.80
2022-12-19T12:44:10.788Z,8.13
2022-12-19T12:47:19.154Z,7.30
2022-12-19T12:50:28.457Z,7.95
2022-12-19T12:53:36.456Z,8.27
2022-12-19T12:56:42.304Z,7.07
2022-12-19T12:59:48.801Z,8.88
2022-12-19T13:02:56.175Z,7.95
2022-12-19T13:06:10.237Z,8.17
2022-12-19T13:09:24.516Z,7.53
2022-12-19T13:12:43.235Z,8.15
2022-12-19T13:15:48.824Z,8.45
2022-12-19T13:19:05.499Z,7.85
2022-12-19T13:22:32.555Z,7.63
2022-12-19T13:25:57.192Z,8.50
2022-12-19T13:29:23.342Z,7.10
2022-12-19T13:32:29.286Z,7.40
2022-12-19T13:36:22.033Z,8.38
2022-12-19T13:39:56.404Z,7.63
2022-12-19T13:42:43.107Z,7.72
2022-12-19T13:45:52.659Z,9.02
2022-12-19T13:48:59.767Z,8.20
2022-12-19T13:52:05.690Z,9.95
2022-12-19T13:55:15.620Z,8.10
2022-12-19T13:58:28.485Z,8.75
2022-12-19T14:01:36.348Z,8.43
2022-12-19T14:04:43.925Z,8.43
2022-12-19T14:07:49.687Z,8.80
2022-12-19T14:11:44.123Z,7.65
2022-12-19T14:14:36.207Z,6.90
2022-12-19T14:17:41.820Z,10.20
2022-12-19T14:22:07.202Z,8.02
2022-12-19T14:24:13.950Z,7.78
2022-12-19T14:28:24.225Z,8.55
2022-12-19T14:30:51.125Z,9.35
2022-12-19T14:34:43.200Z,8.18
2022-12-19T14:38:38.312Z,7.85
2022-12-19T14:41:08.315Z,8.00
2022-12-19T14:52:34.604Z,8.73
2022-12-19T14:54:08.508Z,8.15
2022-12-19T14:54:15.112Z,8.88
2022-12-19T14:56:03.759Z,8.15
2022-12-19T14:58:52.271Z,8.82
2022-12-19T15:01:36.854Z,8.43
2022-12-19T15:04:52.258Z,10.97
2022-12-19T15:08:01.184Z,8.80
2022-12-19T15:11:38.577Z,7.93
2022-12-19T15:14:57.024Z,8.93
2022-12-19T15:18:06.615Z,9.80
2022-12-19T15:21:15.747Z,9.00
2022-12-19T15:24:21.458Z,8.73
2022-12-19T15:27:26.807Z,8.35
2022-12-19T15:30:32.872Z,8.55
2022-12-19T15:33:48.077Z,8.20
2022-12-19T15:37:06.240Z,7.40
2022-12-19T15:40:17.424Z,8.75
2022-12-19T15:44:01.975Z,8.98
2022-12-19T15:46:49.852Z,8.27
2022-12-19T15:49:55.315Z,8.65
2022-12-19T15:53:03.945Z,8.90
2022-12-19T15:56:12.153Z,8.15
2022-12-19T15:59:22.895Z,8.98
2022-12-19T16:02:56.455Z,8.57
2022-12-19T16:05:55.482Z,8.38
2022-12-19T16:09:03.970Z,8.82
2022-12-19T16:15:17.699Z,9.10
2022-12-19T16:21:34.099Z,9.38
2022-12-19T16:24:42.314Z,9.18
2022-12-19T16:27:51.132Z,8.05
2022-12-19T16:30:58.476Z,8.10
2022-12-19T16:34:04.107Z,8.52
2022-12-19T16:37:09.650Z,7.85
2022-12-19T16:40:21.889Z,8.02
2022-12-19T16:43:30.162Z,9.15
2022-12-19T16:46:35.455Z,7.53
2022-12-19T16:49:41.250Z,8.02
2022-12-19T16:52:46.586Z,8.63
2022-12-19T16:55:55.304Z,7.95
2022-12-19T16:59:02.160Z,7.05
2022-12-19T17:02:22.029Z,7.43
2022-12-19T17:05:28.494Z,7.15
2022-12-19T17:08:33.557Z,7.75
2022-12-19T17:11:41.977Z,7.90
2022-12-19T17:14:47.530Z,7.65
2022-12-19T17:17:53.475Z,8.18
2022-12-19T17:20:59.059Z,7.90
2022-12-19T17:24:04.550Z,7.22
2022-12-19T17:27:12.965Z,7.53
2022-12-19T17:33:24.039Z,6.82
2022-12-19T17:36:36.732Z,6.75
2022-12-19T17:39:43.849Z,6.97
2022-12-19T17:42:52.368Z,6.88
2022-12-19T17:45:57.621Z,6.80
2022-12-19T17:49:03.077Z,6.15
2022-12-19T17:52:08.469Z,6.60
2022-12-19T17:55:18.063Z,6.43
2022-12-19T17:58:26.236Z,6.28
2022-12-19T18:01:32.941Z,6.80
2022-12-19T18:04:38.681Z,7.05
2022-12-19T18:07:44.342Z,7.22
2022-12-19T18:10:49.930Z,6.35
2022-12-19T18:13:58.784Z,6.88
2022-12-19T18:17:05.277Z,6.72
2022-12-19T18:20:31.128Z,6.30
2022-12-19T18:23:37.149Z,6.53
2022-12-19T18:26:42.859Z,6.68
2022-12-19T18:29:50.877Z,6.18
2022-12-19T18:32:59.170Z,6.95
2022-12-19T18:36:04.494Z,5.90
2022-12-19T18:39:09.861Z,6.22
2022-12-19T18:42:24.927Z,6.63
2022-12-19T18:45:35.585Z,6.93
2022-12-19T18:48:41.135Z,5.90
2022-12-19T18:51:50.239Z,6.18
2022-12-19T18:54:55.807Z,7.75
2022-12-19T18:58:01.442Z,7.18
2022-12-19T19:01:10.785Z,6.05
2022-12-19T19:04:18.359Z,6.78
2022-12-19T19:07:24.250Z,6.30
2022-12-19T19:10:30.635Z,7.20
2022-12-19T19:13:46.154Z,7.20
2022-12-19T19:16:54.065Z,6.93
2022-12-19T19:19:59.899Z,7.32
2022-12-19T19:23:05.698Z,6.43
2022-12-19T19:26:11.420Z,6.50
2022-12-19T19:29:19.132Z,6.00
2022-12-19T19:32:27.726Z,6.25
2022-12-19T19:38:39.348Z,6.28
2022-12-19T19:41:44.657Z,6.63
2022-12-19T19:44:50.104Z,5.93
2022-12-19T19:47:58.122Z,6.00
2022-12-19T19:51:03.660Z,6.10
2022-12-19T19:54:09.017Z,5.10
2022-12-19T19:57:14.184Z,6.05
2022-12-19T20:00:20.069Z,5.55
2022-12-19T20:03:28.376Z,6.45
2022-12-19T20:06:34.358Z,6.15
2022-12-19T20:09:40.069Z,5.80
2022-12-19T20:12:45.280Z,6.03
2022-12-19T20:15:50.495Z,5.10
2022-12-19T20:18:58.774Z,5.55
2022-12-19T20:22:04.221Z,5.97
2022-12-19T20:25:09.955Z,6.07
2022-12-19T20:28:15.123Z,5.82
2022-12-19T20:31:21.351Z,5.72
2022-12-19T20:34:29.557Z,5.63
2022-12-19T20:37:35.047Z,4.90
2022-12-19T20:40:40.375Z,4.97
2022-12-19T20:43:45.689Z,4.97
2022-12-19T20:46:51.150Z,5.15
2022-12-19T20:49:59.215Z,5.25
2022-12-19T20:53:04.761Z,5.15
2022-12-19T20:56:10.866Z,5.18
2022-12-19T20:59:16.255Z,6.13
2022-12-19T21:02:22.968Z,5.53
2022-12-19T21:05:31.342Z,5.22
2022-12-19T21:08:37.129Z,5.65
2022-12-19T21:11:42.945Z,5.30
2022-12-19T21:14:48.306Z,5.07
2022-12-19T21:17:54.286Z,5.00
2022-12-19T21:21:02.415Z,5.55
2022-12-19T21:24:08.422Z,5.35
2022-12-19T21:27:13.653Z,5.35
2022-12-19T21:30:19.328Z,5.70
2022-12-19T21:33:24.579Z,5.43
2022-12-19T21:36:33.661Z,6.00
2022-12-19T21:39:39.103Z,5.07
2022-12-19T21:42:44.414Z,5.45
2022-12-19T21:45:49.612Z,6.03
2022-12-19T21:48:56.235Z,6.03
2022-12-19T21:52:04.234Z,5.35
2022-12-19T21:55:10.546Z,5.43
2022-12-19T21:58:16.162Z,6.00
2022-12-19T22:01:21.713Z,5.40
2022-12-19T22:04:27.829Z,5.57
2022-12-19T22:07:36.061Z,5.40
2022-12-19T22:10:41.731Z,5.88
2022-12-19T22:13:47.687Z,4.68
2022-12-19T22:16:53.218Z,5.47
2022-12-19T22:19:58.661Z,6.65
2022-12-19T22:23:12.748Z,6.95
2022-12-19T22:26:20.368Z,6.93
2022-12-19T22:29:25.994Z,6.63
2022-12-19T22:32:31.354Z,6.13
2022-12-19T22:35:37.123Z,6.45
2022-12-19T22:38:45.855Z,6.63
2022-12-19T22:41:51.450Z,6.80
2022-12-19T22:44:56.724Z,6.18
2022-12-19T22:48:02.074Z,6.25
2022-12-19T22:51:08.021Z,6.10
2022-12-19T22:54:16.651Z,5.72
2022-12-19T22:57:21.984Z,5.85
2022-12-19T23:00:27.269Z,5.57
2022-12-19T23:03:32.825Z,5.85
2022-12-19T23:06:39.386Z,5.28
2022-12-19T23:09:47.169Z,5.30
2022-12-19T23:12:52.636Z,6.13
2022-12-19T23:15:59.286Z,5.72
2022-12-19T23:19:04.680Z,5.25
2022-12-19T23:22:10.012Z,5.13
2022-12-19T23:25:18.227Z,5.57
2022-12-19T23:28:23.485Z,5.38
2022-12-19T23:31:29.402Z,6.30
2022-12-19T23:34:35.074Z,5.45
2022-12-19T23:37:40.615Z,5.07
2022-12-19T23:40:48.353Z,4.30
2022-12-19T23:43:53.970Z,5.20
2022-12-19T23:47:02.909Z,5.10
2022-12-19T23:50:10.227Z,5.03
2022-12-19T23:53:15.957Z,5.57
2022-12-19T23:56:24.729Z,5.45
2022-12-19T23:59:29.879Z,4.88
